Time;durP1;ratioP1;P1;durP2;ratioP2;P2;SDS_P1;SDS_P2;PMS_P1;PMS_P2;Temp;Humidity;BMP_temperature;BMP_pressure;BME280_temperature;BME280_humidity;BME280_pressure;Samples;Min_cycle;Max_cycle;Signal;HPM_P1;HPM_P2
2022/10/22 00:01:46;;;;;;;17.00;10.20;;;12.10;99.90;;;;;;5027972;28;20959;-60
2022/10/22 00:04:12;;;;;;;17.23;10.82;;;12.20;99.90;;;;;;5022580;28;20041;-60
2022/10/22 00:06:37;;;;;;;19.38;11.00;;;14.10;99.90;;;;;;5028178;28;20043;-60
2022/10/22 00:09:03;;;;;;;20.65;11.00;;;12.00;99.90;;;;;;5026523;28;20100;-61
2022/10/22 00:11:29;;;;;;;18.83;11.57;;;12.00;99.90;;;;;;5022460;28;20038;-60
2022/10/22 00:13:55;;;;;;;17.10;11.05;;;13.20;99.90;;;;;;5026143;28;20037;-60
2022/10/22 00:16:20;;;;;;;18.15;10.60;;;11.90;99.90;;;;;;5027316;28;20040;-60
2022/10/22 00:18:46;;;;;;;14.35;10.30;;;11.90;99.90;;;;;;5025577;28;20059;-60
2022/10/22 00:21:12;;;;;;;15.32;9.25;;;11.80;99.90;;;;;;5024912;28;20212;-59
2022/10/22 00:23:41;;;;;;;16.95;10.20;;;11.70;99.90;;;;;;5027384;28;20033;-60
2022/10/22 00:26:08;;;;;;;18.27;10.82;;;11.70;99.90;;;;;;5025596;28;20033;-60
2022/10/22 00:28:34;;;;;;;16.33;10.00;;;12.80;99.90;;;;;;5025960;28;20041;-60
2022/10/22 00:31:00;;;;;;;21.95;11.63;;;11.80;99.90;;;;;;5025750;28;20074;-59
2022/10/22 00:33:28;;;;;;;17.65;11.40;;;12.10;99.90;;;;;;5023130;28;20131;-60
2022/10/22 00:35:54;;;;;;;17.90;11.90;;;11.60;99.90;;;;;;5025337;28;20506;-59
2022/10/22 00:38:20;;;;;;;19.42;11.07;;;13.30;99.90;;;;;;5027692;28;20071;-59
2022/10/22 00:40:46;;;;;;;14.95;9.35;;;12.70;99.90;;;;;;5024708;28;20048;-59
2022/10/22 00:43:17;;;;;;;18.02;10.90;;;11.70;99.90;;;;;;5027197;28;20390;-59
2022/10/22 00:45:44;;;;;;;23.15;11.35;;;13.50;99.90;;;;;;5025498;28;20452;-59
2022/10/22 00:48:16;;;;;;;18.52;11.90;;;11.50;99.90;;;;;;5023399;28;20053;-57
2022/10/22 00:50:55;;;;;;;17.52;10.98;;;11.50;99.90;;;;;;5024031;28;20145;-60
2022/10/22 00:53:59;;;;;;;16.08;10.05;;;11.60;99.90;;;;;;5022087;28;20968;-59
2022/10/22 00:56:25;;;;;;;17.40;10.02;;;11.30;99.90;;;;;;5037904;28;20060;-59
2022/10/22 00:58:56;;;;;;;17.23;11.38;;;13.20;99.90;;;;;;5025694;28;20525;-59
2022/10/22 01:01:26;;;;;;;16.65;10.80;;;11.50;99.90;;;;;;5025978;28;20426;-60
2022/10/22 01:03:52;;;;;;;23.15;11.07;;;11.60;99.90;;;;;;5024906;28;20749;-58
2022/10/22 01:06:25;;;;;;;18.98;11.82;;;11.50;99.90;;;;;;5024795;28;20133;-59
2022/10/22 01:09:20;;;;;;;20.30;11.82;;;11.60;99.90;;;;;;5026743;28;20573;-59
2022/10/22 01:12:11;;;;;;;17.27;10.70;;;11.60;99.90;;;;;;5026731;28;20040;-59
2022/10/22 01:15:27;;;;;;;20.33;11.32;;;11.70;99.90;;;;;;5024429;28;20049;-59
2022/10/22 01:18:01;;;;;;;22.60;11.45;;;11.90;99.90;;;;;;5046214;28;20149;-59
2022/10/22 01:20:48;;;;;;;30.38;11.30;;;11.60;99.90;;;;;;5025161;28;20043;-59
2022/10/22 01:23:39;;;;;;;18.52;11.40;;;11.60;99.90;;;;;;5023624;28;20695;-59
2022/10/22 01:26:28;;;;;;;17.52;11.02;;;11.60;99.90;;;;;;5022521;28;20053;-59
2022/10/22 01:29:07;;;;;;;23.02;11.88;;;11.60;99.90;;;;;;5025607;28;20057;-59
2022/10/22 01:31:43;;;;;;;19.65;10.90;;;11.80;99.90;;;;;;5022123;28;20037;-59
2022/10/22 01:34:13;;;;;;;17.35;10.90;;;11.40;99.90;;;;;;5024180;28;20585;-59
2022/10/22 01:36:40;;;;;;;18.88;10.82;;;12.30;99.90;;;;;;5022982;28;20106;-59
2022/10/22 01:39:07;;;;;;;17.80;11.60;;;11.60;99.90;;;;;;5024728;28;20518;-58
2022/10/22 01:41:33;;;;;;;16.63;11.10;;;11.50;99.90;;;;;;5025188;28;20525;-59
2022/10/22 01:43:59;;;;;;;17.98;10.52;;;11.70;99.90;;;;;;5023575;28;20541;-59
2022/10/22 01:46:27;;;;;;;17.98;9.77;;;11.90;99.90;;;;;;5028441;28;20049;-59
2022/10/22 01:49:20;;;;;;;18.00;9.88;;;11.60;99.90;;;;;;5025209;28;20158;-59
2022/10/22 01:52:12;;;;;;;23.55;11.52;;;11.80;99.90;;;;;;5022796;28;20499;-59
2022/10/22 01:54:37;;;;;;;20.83;10.63;;;11.80;99.90;;;;;;5011138;28;24205;-59
2022/10/22 01:57:18;;;;;;;18.83;11.02;;;11.80;99.90;;;;;;5026608;28;20041;-59
2022/10/22 02:00:09;;;;;;;17.52;11.23;;;11.80;99.90;;;;;;5025715;28;20041;-58
2022/10/22 02:02:41;;;;;;;23.02;11.93;;;11.80;99.90;;;;;;5021872;28;20177;-58
2022/10/22 02:05:16;;;;;;;15.18;9.80;;;11.80;99.90;;;;;;5024784;28;20056;-58
2022/10/22 02:07:47;;;;;;;20.42;11.40;;;11.60;99.90;;;;;;5018441;28;20043;-59
2022/10/22 02:10:14;;;;;;;17.88;11.82;;;12.70;99.90;;;;;;5021214;28;20049;-59
2022/10/22 02:12:42;;;;;;;18.55;10.90;;;13.70;99.90;;;;;;5022767;28;20444;-59
2022/10/22 02:15:09;;;;;;;21.33;11.02;;;11.70;99.90;;;;;;5023581;28;20053;-59
2022/10/22 02:17:37;;;;;;;17.90;11.20;;;11.80;99.90;;;;;;5022216;28;20461;-59
2022/10/22 02:20:08;;;;;;;20.23;11.40;;;13.10;99.90;;;;;;5026357;28;20047;-59
2022/10/22 02:22:35;;;;;;;23.85;11.10;;;11.80;99.90;;;;;;5025734;28;21039;-58
2022/10/22 02:25:02;;;;;;;24.58;11.98;;;12.00;99.90;;;;;;5026233;28;20765;-58
2022/10/22 02:27:45;;;;;;;18.30;10.70;;;11.70;99.90;;;;;;5025927;28;20041;-58
2022/10/22 02:30:18;;;;;;;14.90;9.68;;;11.80;99.90;;;;;;5028162;28;20369;-58
2022/10/22 02:33:16;;;;;;;20.50;12.07;;;13.60;99.90;;;;;;5023836;28;21355;-59
2022/10/22 02:35:43;;;;;;;19.02;11.45;;;11.80;99.90;;;;;;5027052;28;20140;-58
2022/10/22 02:38:11;;;;;;;16.50;10.82;;;12.20;99.90;;;;;;5028210;28;20036;-59
2022/10/22 02:40:38;;;;;;;20.02;11.68;;;12.10;99.90;;;;;;5026961;28;20058;-59
2022/10/22 02:43:05;;;;;;;18.65;10.52;;;11.90;99.90;;;;;;5022955;28;20085;-59
2022/10/22 02:45:31;;;;;;;26.02;11.60;;;12.00;99.90;;;;;;5028840;28;20044;-58
2022/10/22 02:47:57;;;;;;;24.02;11.18;;;11.70;99.90;;;;;;5025351;28;20064;-59
2022/10/22 02:50:23;;;;;;;18.60;10.65;;;11.80;99.90;;;;;;5028276;28;20076;-59
2022/10/22 02:52:49;;;;;;;14.50;9.75;;;11.90;99.90;;;;;;5028007;27;20579;-58
2022/10/22 02:55:15;;;;;;;16.17;11.75;;;11.80;99.90;;;;;;5024847;28;20561;-59
2022/10/22 02:57:41;;;;;;;18.73;9.38;;;11.80;99.90;;;;;;5030155;28;20040;-59
2022/10/22 03:00:07;;;;;;;17.17;9.38;;;11.80;99.90;;;;;;5025974;28;20033;-59
2022/10/22 03:02:33;;;;;;;22.20;11.20;;;12.00;99.90;;;;;;5024492;28;20048;-59
2022/10/22 03:04:59;;;;;;;17.55;11.98;;;11.80;99.90;;;;;;5025291;28;20037;-59
2022/10/22 03:07:25;;;;;;;22.80;12.05;;;12.00;99.90;;;;;;5026812;28;20070;-59
2022/10/22 03:09:50;;;;;;;24.88;11.15;;;12.90;99.90;;;;;;5026098;28;20030;-59
2022/10/22 03:12:16;;;;;;;24.33;13.18;;;12.20;99.90;;;;;;5024969;28;20414;-58
2022/10/22 03:14:42;;;;;;;20.20;11.20;;;11.80;99.90;;;;;;5029112;28;20040;-58
2022/10/22 03:17:08;;;;;;;26.67;12.35;;;13.70;99.90;;;;;;5012576;28;20422;-59
2022/10/22 03:19:34;;;;;;;18.65;11.18;;;11.80;99.90;;;;;;5027175;28;20064;-58
2022/10/22 03:22:09;;;;;;;22.60;11.60;;;12.00;99.90;;;;;;5030086;28;20417;-58
2022/10/22 03:24:42;;;;;;;23.27;12.05;;;13.00;99.90;;;;;;5026795;28;20044;-59
2022/10/22 03:27:08;;;;;;;19.00;11.57;;;11.70;99.90;;;;;;5026664;28;20113;-59
2022/10/22 03:29:37;;;;;;;21.23;11.15;;;11.90;99.90;;;;;;5027392;28;20518;-58
2022/10/22 03:32:03;;;;;;;20.45;11.57;;;11.90;99.90;;;;;;5022984;28;20037;-59
2022/10/22 03:34:29;;;;;;;19.65;10.73;;;11.90;99.90;;;;;;5023645;28;20106;-58
2022/10/22 03:36:57;;;;;;;19.40;10.90;;;11.90;99.90;;;;;;5025891;28;20463;-58
2022/10/22 03:39:23;;;;;;;17.35;12.02;;;12.10;99.90;;;;;;5020968;28;20092;-59
2022/10/22 03:41:50;;;;;;;21.70;11.07;;;11.80;99.90;;;;;;5027645;28;20127;-59
2022/10/22 03:44:17;;;;;;;21.10;11.98;;;11.80;99.90;;;;;;5024128;28;20057;-59
2022/10/22 03:46:43;;;;;;;23.88;11.32;;;11.70;99.90;;;;;;5026938;28;20762;-59
2022/10/22 03:49:09;;;;;;;25.42;11.80;;;12.00;99.90;;;;;;5029218;28;20068;-59
2022/10/22 03:51:35;;;;;;;23.33;11.18;;;11.70;99.90;;;;;;5025291;28;20041;-59
2022/10/22 03:54:01;;;;;;;21.77;11.20;;;11.60;99.90;;;;;;5027395;28;20052;-59
2022/10/22 03:56:27;;;;;;;16.98;11.10;;;11.70;99.90;;;;;;5024150;28;20128;-58
2022/10/22 03:58:56;;;;;;;25.35;12.38;;;11.70;99.90;;;;;;5025776;28;20037;-59
2022/10/22 04:01:22;;;;;;;21.35;11.07;;;11.60;99.90;;;;;;5028240;28;20125;-59
2022/10/22 04:03:47;;;;;;;22.52;11.27;;;11.60;99.90;;;;;;5026981;28;20068;-59
2022/10/22 04:06:13;;;;;;;24.35;12.93;;;13.70;99.90;;;;;;5028678;28;20056;-59
2022/10/22 04:08:41;;;;;;;21.77;12.45;;;11.70;99.90;;;;;;5027364;28;20052;-59
2022/10/22 04:11:07;;;;;;;24.77;11.93;;;13.90;99.90;;;;;;5027099;28;20117;-58
2022/10/22 04:13:32;;;;;;;21.45;11.85;;;11.60;99.90;;;;;;5025975;28;20478;-59
2022/10/22 04:16:16;;;;;;;19.98;11.90;;;11.50;99.90;;;;;;5023794;28;20040;-59
2022/10/22 04:18:43;;;;;;;21.17;11.80;;;11.40;99.90;;;;;;5021748;28;20518;-59
2022/10/22 04:21:10;;;;;;;22.63;11.82;;;11.70;99.90;;;;;;5026547;28;20048;-59
2022/10/22 04:23:37;;;;;;;26.35;12.55;;;11.50;99.90;;;;;;5026866;28;20399;-59
2022/10/22 04:26:05;;;;;;;29.67;13.05;;;11.60;99.90;;;;;;5025097;28;20723;-59
2022/10/22 04:28:32;;;;;;;18.27;11.40;;;14.00;99.90;;;;;;5024578;28;20044;-59
2022/10/22 04:30:57;;;;;;;20.80;11.10;;;11.70;99.90;;;;;;5025296;28;22809;-58
2022/10/22 04:33:23;;;;;;;20.42;10.80;;;11.90;99.90;;;;;;5026952;28;20057;-59
2022/10/22 04:35:49;;;;;;;20.95;11.65;;;11.70;99.90;;;;;;5027067;28;20037;-59
2022/10/22 04:38:15;;;;;;;20.55;10.98;;;11.70;99.90;;;;;;5026063;28;20052;-59
2022/10/22 04:40:41;;;;;;;21.05;12.02;;;11.80;99.90;;;;;;5026124;28;20049;-60
2022/10/22 04:43:07;;;;;;;24.00;11.65;;;11.80;99.90;;;;;;5024472;28;20443;-59
2022/10/22 04:45:34;;;;;;;24.27;11.90;;;13.00;99.90;;;;;;5024110;28;20120;-59
2022/10/22 04:48:00;;;;;;;15.82;10.77;;;11.90;99.90;;;;;;5026028;28;20037;-59
2022/10/22 04:50:26;;;;;;;17.48;11.05;;;12.60;99.90;;;;;;5027733;28;20064;-58
2022/10/22 04:52:52;;;;;;;25.83;11.70;;;11.70;99.90;;;;;;5023758;28;20166;-59
2022/10/22 04:55:17;;;;;;;23.67;12.13;;;11.60;99.90;;;;;;5024683;28;20075;-60
2022/10/22 04:57:43;;;;;;;20.98;12.07;;;11.70;99.90;;;;;;5027345;28;20036;-59
2022/10/22 05:00:10;;;;;;;19.00;11.00;;;11.70;99.90;;;;;;5024692;28;20049;-59
2022/10/22 05:02:35;;;;;;;20.27;10.95;;;11.60;99.90;;;;;;5025752;28;20526;-60
2022/10/22 05:05:02;;;;;;;22.00;11.02;;;11.70;99.90;;;;;;5027214;28;20127;-59
2022/10/22 05:07:28;;;;;;;21.02;10.30;;;11.60;99.90;;;;;;5026059;28;20040;-59
2022/10/22 05:09:53;;;;;;;17.90;11.38;;;11.60;99.90;;;;;;5025575;28;20717;-59
2022/10/22 05:12:19;;;;;;;23.02;12.05;;;13.60;99.90;;;;;;5026417;28;20502;-59
2022/10/22 05:14:45;;;;;;;20.13;10.07;;;13.10;99.90;;;;;;5026841;28;20467;-60
2022/10/22 05:17:11;;;;;;;18.92;11.02;;;11.50;99.90;;;;;;5024980;28;20044;-60
2022/10/22 05:19:36;;;;;;;19.92;11.48;;;12.80;99.90;;;;;;5028544;28;20857;-59
2022/10/22 05:22:03;;;;;;;20.25;11.25;;;12.80;99.90;;;;;;5025303;28;20052;-60
2022/10/22 05:24:30;;;;;;;19.08;10.88;;;11.30;99.90;;;;;;5023537;28;20033;-60
2022/10/22 05:26:59;;;;;;;24.77;11.18;;;11.20;99.90;;;;;;5024857;28;20516;-59
2022/10/22 05:29:25;;;;;;;19.95;10.25;;;12.90;99.90;;;;;;5026765;28;20167;-59
2022/10/22 05:31:52;;;;;;;24.08;10.20;;;11.50;99.90;;;;;;5023220;28;20401;-60
2022/10/22 05:34:18;;;;;;;21.00;11.48;;;11.50;99.90;;;;;;5023865;28;20044;-59
2022/10/22 05:36:43;;;;;;;22.92;11.43;;;11.50;99.90;;;;;;5022610;28;20072;-60
2022/10/22 05:39:09;;;;;;;20.52;10.80;;;11.50;99.90;;;;;;5024618;28;20124;-59
2022/10/22 05:41:35;;;;;;;24.90;11.05;;;11.60;99.90;;;;;;5026157;28;20037;-60
2022/10/22 05:44:01;;;;;;;22.17;11.18;;;11.60;99.90;;;;;;5021409;28;20046;-59
2022/10/22 05:46:29;;;;;;;21.77;12.27;;;11.50;99.90;;;;;;5021264;28;20037;-59
2022/10/22 05:49:02;;;;;;;19.85;11.25;;;11.60;99.90;;;;;;5026094;28;20842;-59
2022/10/22 05:51:30;;;;;;;20.77;11.68;;;11.60;99.90;;;;;;5025515;28;20037;-59
2022/10/22 05:53:58;;;;;;;23.20;11.75;;;11.70;99.90;;;;;;5025389;28;20052;-59
2022/10/22 05:56:25;;;;;;;26.17;11.55;;;13.10;99.90;;;;;;5029090;28;20056;-59
2022/10/22 05:58:51;;;;;;;21.27;11.07;;;11.70;99.90;;;;;;5030032;28;20045;-60
2022/10/22 06:01:22;;;;;;;18.77;10.95;;;12.00;99.90;;;;;;5025041;28;20130;-60
2022/10/22 06:03:51;;;;;;;21.75;12.75;;;11.60;99.90;;;;;;5030511;28;20072;-60
2022/10/22 06:06:20;;;;;;;22.95;12.93;;;11.50;99.90;;;;;;5025944;28;20068;-59
2022/10/22 06:08:48;;;;;;;19.23;12.05;;;11.50;99.90;;;;;;5026610;28;20049;-60
2022/10/22 06:11:16;;;;;;;23.65;11.77;;;11.70;99.90;;;;;;5028406;28;20128;-59
2022/10/22 06:13:43;;;;;;;21.05;11.75;;;11.60;99.90;;;;;;5027914;28;20069;-59
2022/10/22 06:16:09;;;;;;;24.77;11.40;;;11.30;99.90;;;;;;5006221;28;20041;-59
2022/10/22 06:18:35;;;;;;;22.73;11.70;;;11.60;99.90;;;;;;5027675;28;20052;-58
2022/10/22 06:21:05;;;;;;;22.83;11.30;;;12.50;99.90;;;;;;5027857;28;20043;-59
2022/10/22 06:23:31;;;;;;;26.35;11.65;;;11.60;99.90;;;;;;5029611;28;20567;-59
2022/10/22 06:25:58;;;;;;;22.50;11.68;;;11.50;99.90;;;;;;5027749;28;20124;-59
2022/10/22 06:28:24;;;;;;;24.33;11.38;;;12.60;99.90;;;;;;5027286;28;20691;-58
2022/10/22 06:30:49;;;;;;;21.88;11.60;;;11.60;99.90;;;;;;5027898;28;20037;-59
2022/10/22 06:33:15;;;;;;;21.77;11.75;;;11.60;99.90;;;;;;5025448;28;20033;-59
2022/10/22 06:35:41;;;;;;;23.75;10.90;;;11.70;99.90;;;;;;5025618;28;20402;-58
2022/10/22 06:38:06;;;;;;;24.80;10.90;;;11.60;99.90;;;;;;5026639;28;20049;-58
2022/10/22 06:40:32;;;;;;;21.63;11.55;;;12.10;99.90;;;;;;5026177;28;20117;-59
2022/10/22 06:43:01;;;;;;;32.80;11.95;;;11.80;99.90;;;;;;5028684;28;20041;-59
2022/10/22 06:45:27;;;;;;;25.55;10.50;;;11.60;99.90;;;;;;5027988;28;20041;-59
2022/10/22 06:47:54;;;;;;;20.52;12.00;;;11.70;99.90;;;;;;5024230;28;20314;-59
2022/10/22 06:50:20;;;;;;;24.85;11.63;;;11.90;99.90;;;;;;5027475;28;20068;-58
2022/10/22 06:52:46;;;;;;;22.80;11.05;;;11.90;99.90;;;;;;5026776;28;20935;-59
2022/10/22 06:55:11;;;;;;;21.35;11.95;;;12.00;99.90;;;;;;5027333;28;20113;-59
2022/10/22 06:57:37;;;;;;;20.33;10.80;;;14.00;99.90;;;;;;5026993;28;20128;-59
2022/10/22 07:00:05;;;;;;;24.27;11.60;;;12.20;99.90;;;;;;5025926;28;20041;-59
2022/10/22 07:02:31;;;;;;;20.55;10.95;;;12.30;99.90;;;;;;5028319;28;20181;-59
2022/10/22 07:04:57;;;;;;;19.30;10.23;;;12.30;99.90;;;;;;5024747;28;20411;-59
2022/10/22 07:07:22;;;;;;;20.10;10.60;;;12.50;99.90;;;;;;5024013;28;20049;-59
2022/10/22 07:09:48;;;;;;;20.63;9.77;;;12.40;99.90;;;;;;5022045;28;20037;-59
2022/10/22 07:12:15;;;;;;;18.88;9.40;;;13.50;99.90;;;;;;5025885;28;20033;-60
2022/10/22 07:14:41;;;;;;;19.90;9.77;;;12.50;99.90;;;;;;5028131;28;20104;-59
2022/10/22 07:17:06;;;;;;;27.88;10.15;;;12.80;99.90;;;;;;5024993;28;20033;-59
2022/10/22 07:19:32;;;;;;;15.45;9.02;;;12.70;99.90;;;;;;5026177;28;21367;-59
2022/10/22 07:21:58;;;;;;;17.65;9.05;;;12.50;99.90;;;;;;5025207;28;20049;-59
2022/10/22 07:24:24;;;;;;;24.70;9.20;;;12.60;99.90;;;;;;5022031;28;20128;-59
2022/10/22 07:26:50;;;;;;;24.23;10.68;;;12.80;99.90;;;;;;5029451;28;20135;-59
2022/10/22 07:29:16;;;;;;;15.55;7.78;;;12.60;99.90;;;;;;5025975;28;20140;-60
2022/10/22 07:31:41;;;;;;;16.27;8.98;;;14.40;99.90;;;;;;5028090;28;20141;-59
2022/10/22 07:34:08;;;;;;;15.32;6.82;;;12.90;99.90;;;;;;5029151;28;20037;-59
2022/10/22 07:36:34;;;;;;;19.30;8.50;;;12.80;99.90;;;;;;5027738;28;20033;-59
2022/10/22 07:39:00;;;;;;;20.38;8.43;;;12.80;99.90;;;;;;5028506;28;20310;-59
2022/10/22 07:41:27;;;;;;;17.75;8.23;;;12.90;99.90;;;;;;5024461;28;20459;-60
2022/10/22 07:43:53;;;;;;;16.50;7.90;;;12.90;99.90;;;;;;5023433;28;20049;-60
2022/10/22 07:46:19;;;;;;;15.60;7.18;;;13.00;99.90;;;;;;5024061;28;20088;-59
2022/10/22 07:48:45;;;;;;;15.70;6.80;;;13.10;99.90;;;;;;5024228;28;20278;-59
2022/10/22 07:51:11;;;;;;;21.50;6.88;;;13.00;99.90;;;;;;5024991;28;20033;-59
2022/10/22 07:53:37;;;;;;;16.65;6.82;;;13.10;99.90;;;;;;5028296;28;20514;-59
2022/10/22 07:56:04;;;;;;;15.95;6.97;;;12.90;99.90;;;;;;5027080;28;20127;-60
2022/10/22 07:58:30;;;;;;;16.27;7.03;;;13.00;99.90;;;;;;5024609;28;20037;-59
2022/10/22 08:00:59;;;;;;;15.18;6.70;;;13.20;99.90;;;;;;5027275;28;20041;-59
2022/10/22 08:03:25;;;;;;;16.42;6.25;;;13.10;99.90;;;;;;5025329;28;20045;-59
2022/10/22 08:05:52;;;;;;;13.25;6.30;;;14.30;99.90;;;;;;5025838;28;20037;-59
2022/10/22 08:08:18;;;;;;;14.25;6.40;;;13.10;99.90;;;;;;5023498;28;20569;-60
2022/10/22 08:10:45;;;;;;;17.10;6.82;;;13.10;99.90;;;;;;5023233;28;20049;-58
2022/10/22 08:13:11;;;;;;;17.80;6.30;;;13.50;99.90;;;;;;5025869;28;20467;-59
2022/10/22 08:15:37;;;;;;;16.35;6.53;;;14.30;99.90;;;;;;5026050;28;20037;-59
2022/10/22 08:18:03;;;;;;;17.33;6.30;;;14.40;99.90;;;;;;5027244;28;20064;-59
2022/10/22 08:20:29;;;;;;;16.05;6.22;;;13.50;99.90;;;;;;5023766;28;20048;-60
2022/10/22 08:22:54;;;;;;;12.18;5.22;;;13.70;99.90;;;;;;5025641;28;20041;-59
2022/10/22 08:25:21;;;;;;;16.10;4.75;;;13.90;99.90;;;;;;5026067;28;20181;-59
2022/10/22 08:27:46;;;;;;;14.35;5.60;;;14.10;99.90;;;;;;5025454;28;20123;-60
2022/10/22 08:30:13;;;;;;;13.10;5.53;;;14.30;99.90;;;;;;5025157;28;20037;-60
2022/10/22 08:32:39;;;;;;;12.18;4.90;;;14.60;99.90;;;;;;5024487;28;20045;-59
2022/10/22 08:35:05;;;;;;;15.00;5.22;;;14.40;99.90;;;;;;5026203;28;20396;-60
2022/10/22 08:37:30;;;;;;;17.25;5.20;;;14.60;99.90;;;;;;5025752;28;20057;-59
2022/10/22 08:39:56;;;;;;;14.85;4.68;;;14.50;99.90;;;;;;5023575;28;20261;-60
2022/10/22 08:42:43;;;;;;;15.25;5.70;;;14.60;99.90;;;;;;5007388;28;20037;-59
2022/10/22 08:45:40;;;;;;;10.52;4.82;;;14.80;99.90;;;;;;5025235;28;20050;-60
2022/10/22 08:48:19;;;;;;;17.95;4.90;;;15.00;99.90;;;;;;5026829;28;20086;-59
2022/10/22 08:50:55;;;;;;;17.63;5.30;;;14.90;99.90;;;;;;5022071;28;20069;-60
2022/10/22 08:53:30;;;;;;;14.25;4.32;;;15.10;99.90;;;;;;5026361;28;20098;-60
2022/10/22 08:55:57;;;;;;;12.38;4.57;;;15.40;99.90;;;;;;5025977;28;20052;-60
2022/10/22 08:59:09;;;;;;;14.38;4.40;;;15.30;99.90;;;;;;5022135;28;20044;-60
2022/10/22 09:01:38;;;;;;;14.70;4.50;;;15.40;99.90;;;;;;4999217;28;20057;-59
2022/10/22 09:04:04;;;;;;;11.88;4.25;;;15.40;99.90;;;;;;5023936;28;20033;-60
2022/10/22 09:06:32;;;;;;;15.80;4.13;;;15.50;99.90;;;;;;5023449;28;20164;-60
2022/10/22 09:09:00;;;;;;;10.15;3.40;;;15.50;99.90;;;;;;5023868;28;20041;-59
2022/10/22 09:11:38;;;;;;;18.05;4.60;;;15.40;99.90;;;;;;5024036;28;20048;-59
2022/10/22 09:14:04;;;;;;;14.63;3.42;;;15.80;99.90;;;;;;5023783;28;20128;-60
2022/10/22 09:17:13;;;;;;;19.08;4.97;;;15.90;99.90;;;;;;5026290;28;20729;-60
2022/10/22 09:19:51;;;;;;;14.25;4.22;;;15.80;99.90;;;;;;5022599;28;20397;-60
2022/10/22 09:22:38;;;;;;;18.02;4.38;;;16.00;99.90;;;;;;5024259;28;20652;-60
2022/10/22 09:25:29;;;;;;;14.02;3.60;;;16.00;99.90;;;;;;5025373;28;20110;-60
2022/10/22 09:27:57;;;;;;;13.32;4.00;;;15.80;99.90;;;;;;5023577;28;20064;-60
2022/10/22 09:30:32;;;;;;;17.45;4.28;;;15.60;99.90;;;;;;5022714;28;20053;-61
2022/10/22 09:33:14;;;;;;;11.02;3.55;;;15.40;99.90;;;;;;5020517;28;20735;-60
2022/10/22 09:35:44;;;;;;;;;;;15.50;99.90;;;;;;5024508;28;20764;-60
2022/10/22 09:38:13;;;;;;;14.05;3.58;;;15.50;99.90;;;;;;5023590;28;19925;-59
2022/10/22 09:40:50;;;;;;;13.73;3.92;;;16.70;99.90;;;;;;5024761;28;20052;-60
2022/10/22 09:43:17;;;;;;;13.25;3.90;;;15.50;99.90;;;;;;5024707;28;20044;-60
2022/10/22 09:45:44;;;;;;;15.00;3.55;;;15.40;99.90;;;;;;5023763;28;20512;-60
2022/10/22 09:48:16;;;;;;;13.23;3.45;;;15.40;99.90;;;;;;5022233;28;20045;-59
2022/10/22 09:50:54;;;;;;;12.95;4.65;;;15.40;99.90;;;;;;5023050;28;20050;-60
2022/10/22 09:53:25;;;;;;;14.25;4.15;;;15.60;99.90;;;;;;5025498;28;20076;-59
2022/10/22 09:55:53;;;;;;;21.17;3.95;;;15.50;99.90;;;;;;5024476;28;20052;-60
2022/10/22 09:58:20;;;;;;;15.52;4.05;;;15.40;99.90;;;;;;5023861;28;20597;-59
2022/10/22 10:00:50;;;;;;;11.68;3.40;;;15.40;99.90;;;;;;5025660;28;20037;-60
2022/10/22 10:03:22;;;;;;;12.23;3.75;;;15.70;99.90;;;;;;5025648;28;20448;-59
2022/10/22 10:05:52;;;;;;;13.93;3.47;;;15.40;99.90;;;;;;5025212;28;20419;-60
2022/10/22 10:08:18;;;;;;;12.07;4.00;;;15.40;99.90;;;;;;5023461;28;20082;-59
2022/10/22 10:10:58;;;;;;;12.23;3.45;;;15.20;99.90;;;;;;5023722;28;20037;-59
2022/10/22 10:13:52;;;;;;;13.25;3.72;;;15.30;99.90;;;;;;5023175;28;20282;-59
2022/10/22 10:16:36;;;;;;;13.65;4.47;;;15.50;99.90;;;;;;5022220;28;20037;-59
2022/10/22 10:19:29;;;;;;;13.70;3.72;;;15.50;99.90;;;;;;5022056;28;20578;-59
2022/10/22 10:22:22;;;;;;;13.60;3.92;;;15.60;99.90;;;;;;5021460;28;20582;-59
2022/10/22 10:25:11;;;;;;;18.95;4.78;;;15.70;99.90;;;;;;5025470;28;20501;-59
2022/10/22 10:27:42;;;;;;;12.02;4.30;;;15.70;99.90;;;;;;5023030;28;20101;-59
2022/10/22 10:30:15;;;;;;;16.38;4.80;;;15.50;99.90;;;;;;5020643;28;20046;-60
2022/10/22 10:33:19;;;;;;;15.35;4.40;;;17.50;99.90;;;;;;5021434;28;20114;-59
2022/10/22 10:36:14;;;;;;;11.82;4.20;;;15.50;99.90;;;;;;5023274;28;20048;-59
2022/10/22 10:39:22;;;;;;;13.45;4.72;;;15.60;99.90;;;;;;5011702;28;20180;-60
2022/10/22 10:42:20;;;;;;;16.70;4.82;;;15.60;99.90;;;;;;5021150;28;20834;-59
2022/10/22 10:45:08;;;;;;;15.07;4.25;;;15.40;99.90;;;;;;4999472;28;20060;-59
2022/10/22 10:48:11;;;;;;;15.07;4.18;;;15.50;99.90;;;;;;5025890;28;20137;-58
2022/10/22 10:50:46;;;;;;;12.60;4.13;;;15.50;99.90;;;;;;5023805;28;20101;-59
2022/10/22 10:53:32;;;;;;;13.10;4.43;;;15.40;99.90;;;;;;5026049;28;20037;-60
2022/10/22 10:56:10;;;;;;;11.10;4.60;;;15.30;99.90;;;;;;5022411;28;20065;-59
2022/10/22 10:59:12;;;;;;;11.85;5.03;;;15.40;99.90;;;;;;5027038;28;20084;-60
2022/10/22 11:01:46;;;;;;;11.10;4.22;;;15.10;99.90;;;;;;5023746;28;20041;-59
2022/10/22 11:04:26;;;;;;;9.88;3.78;;;15.10;99.90;;;;;;5026631;28;20049;-59
2022/10/22 11:06:56;;;;;;;11.80;4.20;;;14.90;99.90;;;;;;5024154;28;20058;-59
2022/10/22 11:09:35;;;;;;;10.30;4.55;;;15.00;99.90;;;;;;5025760;28;20049;-59
2022/10/22 11:12:22;;;;;;;14.85;5.75;;;15.00;99.90;;;;;;5028185;28;20045;-60
2022/10/22 11:15:20;;;;;;;10.05;4.95;;;15.00;99.90;;;;;;5027119;28;20033;-60
2022/10/22 11:17:48;;;;;;;11.70;4.97;;;15.40;99.90;;;;;;5023999;28;20045;-59
2022/10/22 11:20:19;;;;;;;11.40;5.88;;;15.60;99.90;;;;;;5023535;28;20041;-60
2022/10/22 11:23:01;;;;;;;11.70;5.00;;;15.60;99.90;;;;;;5026848;28;20128;-58
2022/10/22 11:25:30;;;;;;;;;;;16.00;99.90;;;;;;5025082;28;20040;-60
2022/10/22 11:27:59;;;;;;;13.48;5.75;;;15.90;99.90;;;;;;5027906;28;20019;-58
2022/10/22 11:30:30;;;;;;;13.52;5.18;;;15.90;99.90;;;;;;5027831;28;20041;-60
2022/10/22 11:33:02;;;;;;;16.30;5.97;;;15.60;99.90;;;;;;5025190;28;20045;-59
2022/10/22 11:35:37;;;;;;;11.85;5.82;;;15.50;99.90;;;;;;5026401;28;20471;-59
2022/10/22 11:38:06;;;;;;;12.93;5.90;;;15.50;99.90;;;;;;5025144;28;20037;-59
2022/10/22 11:40:36;;;;;;;18.27;6.88;;;15.30;99.90;;;;;;5027610;28;20045;-59
2022/10/22 11:43:09;;;;;;;14.07;7.30;;;15.20;99.90;;;;;;5023940;28;20521;-59
2022/10/22 11:45:38;;;;;;;15.82;8.45;;;15.00;99.90;;;;;;5029532;28;20048;-59
2022/10/22 11:48:26;;;;;;;16.33;8.40;;;15.10;99.90;;;;;;5025016;28;20074;-59
2022/10/22 11:51:00;;;;;;;15.07;7.13;;;12.90;99.90;;;;;;5024192;28;20483;-58
2022/10/22 11:53:37;;;;;;;15.98;7.75;;;15.00;99.90;;;;;;5028103;28;20037;-58
2022/10/22 11:56:06;;;;;;;14.82;7.53;;;15.30;99.90;;;;;;5024722;28;20091;-58
2022/10/22 11:58:42;;;;;;;15.82;7.00;;;15.10;99.90;;;;;;5025896;28;20139;-59
2022/10/22 12:01:08;;;;;;;17.30;7.63;;;15.40;99.90;;;;;;5025945;28;20153;-58
2022/10/22 12:03:34;;;;;;;16.48;6.75;;;15.40;99.90;;;;;;5024133;28;20147;-59
2022/10/22 12:06:11;;;;;;;19.38;6.90;;;15.30;99.90;;;;;;5027975;28;20048;-58
2022/10/22 12:08:56;;;;;;;16.50;6.20;;;15.40;99.90;;;;;;5025643;28;20045;-58
2022/10/22 12:11:27;;;;;;;17.58;6.95;;;15.70;99.90;;;;;;5024293;28;20521;-58
2022/10/22 12:14:25;;;;;;;13.63;6.30;;;15.40;99.90;;;;;;5026934;28;20459;-59
2022/10/22 12:17:09;;;;;;;13.70;5.72;;;15.20;99.90;;;;;;5020900;28;20822;-58
2022/10/22 12:19:38;;;;;;;20.13;5.68;;;15.40;99.90;;;;;;5024203;28;20057;-59
2022/10/22 12:22:17;;;;;;;19.55;6.35;;;15.40;99.90;;;;;;5023992;28;20048;-59
2022/10/22 12:24:46;;;;;;;17.77;4.97;;;15.60;99.90;;;;;;5022616;28;20087;-59
2022/10/22 12:27:38;;;;;;;14.35;4.05;;;15.40;99.90;;;;;;5023888;28;20578;-59
2022/10/22 12:30:33;;;;;;;15.90;4.90;;;15.30;99.90;;;;;;5025243;28;20457;-58
2022/10/22 12:33:05;;;;;;;15.32;4.38;;;15.50;99.90;;;;;;5017887;28;20129;-59
2022/10/22 12:35:42;;;;;;;22.98;5.25;;;15.30;99.90;;;;;;5027287;28;20045;-59
2022/10/22 12:38:14;;;;;;;15.35;4.60;;;15.20;99.90;;;;;;5025436;28;20751;-59
2022/10/22 12:40:40;;;;;;;13.45;3.78;;;15.20;99.90;;;;;;5025989;28;20072;-59
2022/10/22 12:43:15;;;;;;;11.65;3.90;;;15.20;99.90;;;;;;5023746;28;20068;-59
2022/10/22 12:45:44;;;;;;;15.82;3.40;;;15.30;99.90;;;;;;5027212;28;20139;-57
2022/10/22 12:48:20;;;;;;;15.55;3.13;;;15.30;99.90;;;;;;5026398;28;20615;-59
2022/10/22 12:50:50;;;;;;;13.48;3.40;;;15.40;99.90;;;;;;5024308;28;20056;-58
2022/10/22 12:53:29;;;;;;;11.52;3.28;;;15.40;99.90;;;;;;5020383;28;20636;-59
2022/10/22 12:56:01;;;;;;;10.40;3.45;;;15.70;99.90;;;;;;5024509;28;20376;-59